Time,TemperatureF,DewpointF,PressureIn,WindDirection,WindDirectionDegrees,WindSpeedMPH,WindSpeedGustMPH,Humidity,HourlyPrecipIn,Conditions,Clouds,dailyrainin,SoftwareType,DateUTC
2013-07-14 00:00:00,69.0,67.0,30.16,East,92,0.0,0.0,93,0.00,,,0.00,weatherlink.com 1.10,2013-07-14 04:00:00,
2013-07-14 00:15:00,68.8,67.0,30.17,ENE,76,0.0,0.0,94,0.00,,,0.00,weatherlink.com 1.10,2013-07-14 04:15:00,
2013-07-14 00:30:00,68.6,67.0,30.17,East,101,0.0,0.0,94,0.00,,,0.00,weatherlink.com 1.10,2013-07-14 04:30:00,
2013-07-14 00:45:00,68.5,67.0,30.17,East,101,0.0,0.0,95,0.00,,,0.00,weatherlink.com 1.10,2013-07-14 04:45:00,
2013-07-14 01:00:00,68.3,67.0,30.17,East,101,0.0,0.0,96,0.01,,,0.01,weatherlink.com 1.10,2013-07-14 05:00:00,
2013-07-14 01:15:00,68.1,67.0,30.17,East,101,0.0,0.0,96,0.02,,,0.02,weatherlink.com 1.10,2013-07-14 05:15:00,
2013-07-14 01:30:00,68.0,67.0,30.16,East,101,0.0,0.0,97,0.02,,,0.02,weatherlink.com 1.10,2013-07-14 05:30:00,
2013-07-14 01:45:00,67.9,67.0,30.17,East,101,0.0,0.0,97,0.02,,,0.02,weatherlink.com 1.10,2013-07-14 05:45:00,
2013-07-14 02:00:00,68.0,67.0,30.17,East,101,0.0,0.0,97,0.01,,,0.02,weatherlink.com 1.10,2013-07-14 06:00:00,
2013-07-14 02:15:00,68.0,68.0,30.17,East,101,0.0,0.0,98,0.00,,,0.02,weatherlink.com 1.10,2013-07-14 06:15:00,
2013-07-14 02:30:00,67.9,67.0,30.16,East,101,0.0,0.0,98,0.01,,,0.03,weatherlink.com 1.10,2013-07-14 06:30:00,
2013-07-14 02:45:00,68.0,68.0,30.16,East,101,0.0,0.0,98,0.01,,,0.03,weatherlink.com 1.10,2013-07-14 06:45:00,
2013-07-14 03:00:00,68.0,68.0,30.16,East,101,0.0,0.0,98,0.03,,,0.05,weatherlink.com 1.10,2013-07-14 07:00:00,
2013-07-14 03:15:00,68.0,68.0,30.16,East,101,0.0,0.0,98,0.07,,,0.09,weatherlink.com 1.10,2013-07-14 07:15:00,
2013-07-14 03:30:00,68.0,68.0,30.16,East,101,0.0,0.0,98,0.12,,,0.15,weatherlink.com 1.10,2013-07-14 07:30:00,
2013-07-14 03:45:00,68.0,68.0,30.16,East,101,0.0,0.0,98,0.13,,,0.16,weatherlink.com 1.10,2013-07-14 07:45:00,
2013-07-14 04:00:00,67.9,67.0,30.17,East,101,0.0,0.0,98,0.12,,,0.17,weatherlink.com 1.10,2013-07-14 08:00:00,
2013-07-14 04:15:00,67.8,67.0,30.17,East,101,0.0,0.0,98,0.08,,,0.17,weatherlink.com 1.10,2013-07-14 08:15:00,
2013-07-14 04:30:00,67.8,67.0,30.17,ESE,103,0.0,0.0,98,0.04,,,0.19,weatherlink.com 1.10,2013-07-14 08:30:00,
2013-07-14 04:45:00,67.7,67.0,30.18,ESE,103,0.0,0.0,98,0.06,,,0.22,weatherlink.com 1.10,2013-07-14 08:45:00,
2013-07-14 05:00:00,67.7,67.0,30.18,ESE,103,0.0,0.0,98,0.11,,,0.28,weatherlink.com 1.10,2013-07-14 09:00:00,
2013-07-14 05:15:00,67.7,67.0,30.19,SSW,197,0.0,0.0,98,0.12,,,0.29,weatherlink.com 1.10,2013-07-14 09:15:00,
2013-07-14 05:30:00,67.6,67.0,30.19,WSW,254,0.0,0.0,99,0.10,,,0.29,weatherlink.com 1.10,2013-07-14 09:30:00,
2013-07-14 05:45:00,67.4,67.0,30.19,WSW,254,0.0,0.0,98,0.06,,,0.29,weatherlink.com 1.10,2013-07-14 09:45:00,
2013-07-14 06:00:00,67.4,67.0,30.20,WSW,254,0.0,0.0,98,0.03,,,0.31,weatherlink.com 1.10,2013-07-14 10:00:00,
2013-07-14 06:15:00,67.4,67.0,30.21,WSW,254,0.0,0.0,98,0.07,,,0.36,weatherlink.com 1.10,2013-07-14 10:15:00,
2013-07-14 06:31:00,67.2,67.0,30.21,South,187,0.0,0.0,98,0.11,,,0.40,weatherlink.com 1.10,2013-07-14 10:31:00,
2013-07-14 06:46:00,67.2,67.0,30.22,ESE,119,0.0,0.0,98,0.11,,,0.40,weatherlink.com 1.10,2013-07-14 10:46:00,
2013-07-14 07:01:00,67.2,67.0,30.23,South,188,0.0,0.0,99,0.09,,,0.40,weatherlink.com 1.10,2013-07-14 11:01:00,
2013-07-14 07:16:00,67.2,67.0,30.23,South,185,0.0,0.0,99,0.05,,,0.41,weatherlink.com 1.10,2013-07-14 11:16:00,
2013-07-14 07:31:00,67.2,67.0,30.23,South,185,0.0,0.0,99,0.05,,,0.45,weatherlink.com 1.10,2013-07-14 11:31:00,
2013-07-14 07:46:00,67.2,67.0,30.24,South,185,0.0,0.0,99,0.31,,,0.71,weatherlink.com 1.10,2013-07-14 11:46:00,
2013-07-14 08:01:00,67.3,67.0,30.24,South,185,0.0,0.0,99,0.57,,,0.97,weatherlink.com 1.10,2013-07-14 12:01:00,
2013-07-14 08:16:00,67.5,67.0,30.24,ESE,111,0.0,0.0,99,0.62,,,1.03,weatherlink.com 1.10,2013-07-14 12:16:00,
2013-07-14 08:31:00,67.7,67.0,30.25,ESE,111,0.0,0.0,99,0.58,,,1.03,weatherlink.com 1.10,2013-07-14 12:31:00,
2013-07-14 08:46:00,67.6,67.0,30.25,East,84,0.0,0.0,99,0.34,,,1.07,weatherlink.com 1.10,2013-07-14 12:46:00,
2013-07-14 09:01:00,67.6,67.0,30.26,East,86,0.0,0.0,99,0.08,,,1.08,weatherlink.com 1.10,2013-07-14 13:01:00,
2013-07-14 09:16:00,67.6,67.0,30.26,East,83,0.0,0.0,99,0.09,,,1.12,weatherlink.com 1.10,2013-07-14 13:16:00,
2013-07-14 09:31:00,67.9,68.0,30.26,East,83,0.0,0.0,99,0.10,,,1.13,weatherlink.com 1.10,2013-07-14 13:31:00,
2013-07-14 09:46:00,67.8,68.0,30.26,East,83,0.0,0.0,99,0.08,,,1.15,weatherlink.com 1.10,2013-07-14 13:46:00,
2013-07-14 10:01:00,68.1,68.0,30.26,East,87,0.0,0.0,99,0.09,,,1.17,weatherlink.com 1.10,2013-07-14 14:01:00,
2013-07-14 10:16:00,68.0,68.0,30.27,East,90,0.0,0.0,99,0.07,,,1.19,weatherlink.com 1.10,2013-07-14 14:16:00,
2013-07-14 10:31:00,68.0,68.0,30.28,East,94,0.0,0.0,99,0.09,,,1.22,weatherlink.com 1.10,2013-07-14 14:31:00,
2013-07-14 10:46:00,68.1,68.0,30.27,East,101,0.0,0.0,99,0.10,,,1.25,weatherlink.com 1.10,2013-07-14 14:46:00,
2013-07-14 11:01:00,68.5,68.0,30.28,East,99,0.0,0.0,99,0.09,,,1.26,weatherlink.com 1.10,2013-07-14 15:01:00,
2013-07-14 11:16:00,67.9,68.0,30.28,East,93,0.0,0.0,99,0.08,,,1.27,weatherlink.com 1.10,2013-07-14 15:16:00,
2013-07-14 11:31:00,68.2,68.0,30.29,ESE,105,0.0,0.0,99,0.04,,,1.27,weatherlink.com 1.10,2013-07-14 15:31:00,
2013-07-14 11:46:00,68.1,68.0,30.29,East,95,0.0,0.0,99,0.02,,,1.27,weatherlink.com 1.10,2013-07-14 15:46:00,
2013-07-14 12:01:00,68.3,68.0,30.29,East,90,0.0,0.0,99,0.01,,,1.27,weatherlink.com 1.10,2013-07-14 16:01:00,
2013-07-14 12:16:00,68.3,68.0,30.29,East,98,0.0,0.0,99,0.00,,,1.27,weatherlink.com 1.10,2013-07-14 16:16:00,
2013-07-14 12:31:00,68.4,68.0,30.29,ESE,102,0.0,0.0,99,0.02,,,1.29,weatherlink.com 1.10,2013-07-14 16:31:00,
2013-07-14 12:46:00,69.3,69.0,30.28,East,98,0.0,0.0,99,0.02,,,1.29,weatherlink.com 1.10,2013-07-14 16:46:00,
2013-07-14 13:01:00,69.1,69.0,30.29,East,97,0.0,0.0,99,0.05,,,1.32,weatherlink.com 1.10,2013-07-14 17:01:00,
2013-07-14 13:16:00,68.7,68.0,30.29,East,94,0.0,0.0,99,0.08,,,1.35,weatherlink.com 1.10,2013-07-14 17:16:00,
2013-07-14 13:31:00,68.4,68.0,30.29,East,93,0.0,0.0,98,0.06,,,1.35,weatherlink.com 1.10,2013-07-14 17:31:00,
2013-07-14 13:46:00,68.5,68.0,30.28,East,98,0.0,0.0,99,0.06,,,1.35,weatherlink.com 1.10,2013-07-14 17:46:00,
2013-07-14 14:01:00,69.6,69.0,30.29,ESE,123,0.0,0.0,99,0.03,,,1.35,weatherlink.com 1.10,2013-07-14 18:01:00,
2013-07-14 14:16:00,68.8,68.0,30.29,East,101,0.0,0.0,98,0.02,,,1.37,weatherlink.com 1.10,2013-07-14 18:16:00,
2013-07-14 14:31:00,68.9,68.0,30.29,East,101,0.0,0.0,98,0.02,,,1.37,weatherlink.com 1.10,2013-07-14 18:31:00,
2013-07-14 14:46:00,69.3,69.0,30.28,East,89,0.0,0.0,99,0.02,,,1.37,weatherlink.com 1.10,2013-07-14 18:46:00,
2013-07-14 15:01:00,69.4,69.0,30.29,East,92,0.0,0.0,99,0.05,,,1.40,weatherlink.com 1.10,2013-07-14 19:01:00,
2013-07-14 15:16:00,68.7,68.0,30.28,SSW,202,0.0,0.0,98,0.05,,,1.42,weatherlink.com 1.10,2013-07-14 19:16:00,
2013-07-14 15:31:00,68.3,68.0,30.28,East,100,0.0,0.0,97,0.05,,,1.42,weatherlink.com 1.10,2013-07-14 19:31:00,
2013-07-14 15:46:00,68.7,68.0,30.27,WNW,287,0.0,0.0,99,0.05,,,1.42,weatherlink.com 1.10,2013-07-14 19:46:00,
2013-07-14 16:01:00,69.4,69.0,30.28,ESE,116,0.0,0.0,99,0.02,,,1.42,weatherlink.com 1.10,2013-07-14 20:01:00,
2013-07-14 16:16:00,70.0,70.0,30.27,SE,144,0.0,0.0,99,0.00,,,1.42,weatherlink.com 1.10,2013-07-14 20:16:00,
2013-07-14 16:31:00,70.7,70.0,30.27,ESE,123,0.0,0.0,97,0.00,,,1.42,weatherlink.com 1.10,2013-07-14 20:31:00,
2013-07-14 16:46:00,69.2,68.0,30.28,East,95,0.0,0.0,96,0.02,,,1.44,weatherlink.com 1.10,2013-07-14 20:46:00,
2013-07-14 17:01:00,67.9,67.0,30.28,ESE,102,0.0,0.0,97,0.03,,,1.45,weatherlink.com 1.10,2013-07-14 21:01:00,
2013-07-14 17:16:00,67.1,66.0,30.28,SSW,196,0.0,0.0,97,0.03,,,1.45,weatherlink.com 1.10,2013-07-14 21:16:00,
2013-07-14 17:31:00,65.9,65.0,30.28,East,95,0.0,0.0,97,0.03,,,1.45,weatherlink.com 1.10,2013-07-14 21:31:00,
2013-07-14 17:46:00,65.8,65.0,30.29,East,95,0.0,0.0,98,0.01,,,1.45,weatherlink.com 1.10,2013-07-14 21:46:00,
2013-07-14 18:01:00,66.0,65.0,30.29,South,174,0.0,0.0,97,0.00,,,1.45,weatherlink.com 1.10,2013-07-14 22:01:00,
2013-07-14 18:16:00,66.7,65.0,30.29,SSW,207,0.0,0.0,95,0.00,,,1.45,weatherlink.com 1.10,2013-07-14 22:16:00,
2013-07-14 18:31:00,68.0,67.0,30.28,SSW,202,0.0,0.0,95,0.00,,,1.45,weatherlink.com 1.10,2013-07-14 22:31:00,
2013-07-14 18:46:00,69.0,67.0,30.28,South,186,0.0,0.0,94,0.00,,,1.45,weatherlink.com 1.10,2013-07-14 22:46:00,
2013-07-14 19:01:00,70.2,69.0,30.29,South,186,0.0,0.0,94,0.00,,,1.45,weatherlink.com 1.10,2013-07-14 23:01:00,
2013-07-14 19:16:00,71.5,69.0,30.29,WSW,244,0.0,0.0,92,0.00,,,1.45,weatherlink.com 1.10,2013-07-14 23:16:00,
2013-07-14 19:31:00,71.1,68.0,30.30,SW,223,0.0,0.0,90,0.00,,,1.45,weatherlink.com 1.10,2013-07-14 23:31:00,
2013-07-14 19:46:00,70.6,68.0,30.31,SW,223,0.0,0.0,91,0.00,,,1.45,weatherlink.com 1.10,2013-07-14 23:46:00,
2013-07-14 20:02:00,69.4,67.0,30.31,SW,220,0.0,0.0,92,0.00,,,1.45,weatherlink.com 1.10,2013-07-15 00:02:00,
2013-07-14 20:17:00,68.9,67.0,30.32,SW,220,0.0,0.0,94,0.00,,,1.45,weatherlink.com 1.10,2013-07-15 00:17:00,
2013-07-14 20:32:00,68.4,67.0,30.31,SW,220,0.0,0.0,95,0.04,,,1.49,weatherlink.com 1.10,2013-07-15 00:32:00,
2013-07-14 20:47:00,67.2,66.0,30.31,SW,218,0.0,0.0,95,0.04,,,1.49,weatherlink.com 1.10,2013-07-15 00:47:00,
2013-07-14 21:02:00,66.8,66.0,30.31,SW,218,0.0,0.0,97,0.04,,,1.49,weatherlink.com 1.10,2013-07-15 01:02:00,
2013-07-14 21:17:00,66.9,66.0,30.31,SW,218,0.0,0.0,97,0.04,,,1.49,weatherlink.com 1.10,2013-07-15 01:17:00,
2013-07-14 21:32:00,66.7,66.0,30.32,SW,218,0.0,0.0,97,0.00,,,1.49,weatherlink.com 1.10,2013-07-15 01:32:00,
2013-07-14 21:47:00,66.5,66.0,30.32,SW,218,0.0,0.0,97,0.00,,,1.49,weatherlink.com 1.10,2013-07-15 01:47:00,
2013-07-14 22:02:00,66.4,66.0,30.32,SW,218,0.0,0.0,97,0.00,,,1.49,weatherlink.com 1.10,2013-07-15 02:02:00,
2013-07-14 22:17:00,66.3,66.0,30.33,SW,218,0.0,0.0,97,0.00,,,1.49,weatherlink.com 1.10,2013-07-15 02:17:00,
2013-07-14 22:32:00,66.2,66.0,30.33,SW,218,0.0,0.0,98,0.00,,,1.49,weatherlink.com 1.10,2013-07-15 02:32:00,
2013-07-14 22:47:00,66.6,66.0,30.33,SW,218,0.0,0.0,98,0.00,,,1.49,weatherlink.com 1.10,2013-07-15 02:47:00,
2013-07-14 23:02:00,67.0,67.0,30.33,SW,218,0.0,0.0,98,0.00,,,1.49,weatherlink.com 1.10,2013-07-15 03:02:00,
2013-07-14 23:17:00,67.4,67.0,30.33,SSW,202,0.0,0.0,98,0.00,,,1.49,weatherlink.com 1.10,2013-07-15 03:17:00,
2013-07-14 23:32:00,67.2,67.0,30.34,SSW,202,0.0,0.0,98,0.00,,,1.49,weatherlink.com 1.10,2013-07-15 03:32:00,
2013-07-14 23:47:00,67.2,66.0,30.35,SSW,202,0.0,0.0,97,0.00,,,1.49,weatherlink.com 1.10,2013-07-15 03:47:00,